Time,TemperatureF,DewpointF,PressureIn,WindDirection,WindDirectionDegrees,WindSpeedMPH,WindSpeedGustMPH,Humidity,HourlyPrecipIn,Conditions,Clouds,dailyrainin,SolarRadiationWatts/m^2,SoftwareType,DateUTC
2013-04-26 00:02:00,50.5,45.5,30.10,NW,317,2.0,4.0,83,0.00,,,0.00,0,HR-IXPWINDi_r2_v1.2.,2013-04-26 07:02:00,
2013-04-26 00:07:00,50.5,45.5,30.10,WNW,295,1.0,4.0,83,0.00,,,0.00,0,HR-IXPWINDi_r2_v1.2.,2013-04-26 07:07:00,
2013-04-26 00:12:00,50.6,45.9,30.10,WNW,298,1.0,4.0,84,0.00,,,0.00,0,HR-IXPWINDi_r2_v1.2.,2013-04-26 07:12:00,
2013-04-26 00:17:00,50.6,45.6,30.10,NW,308,2.0,4.0,83,0.00,,,0.00,0,HR-IXPWINDi_r2_v1.2.,2013-04-26 07:17:00,
2013-04-26 00:23:00,50.2,45.5,30.10,NW,310,2.0,3.0,84,0.00,,,0.00,0,HR-IXPWINDi_r2_v1.2.,2013-04-26 07:23:00,
2013-04-26 00:28:00,50.0,45.3,30.10,NW,310,1.0,3.0,84,0.00,,,0.00,0,HR-IXPWINDi_r2_v1.2.,2013-04-26 07:28:00,
2013-04-26 00:33:00,50.0,45.3,30.10,NW,310,1.0,2.0,84,0.00,,,0.00,0,HR-IXPWINDi_r2_v1.2.,2013-04-26 07:33:00,
2013-04-26 00:38:00,50.1,45.4,30.10,NW,310,0.0,2.0,84,0.00,,,0.00,0,HR-IXPWINDi_r2_v1.2.,2013-04-26 07:38:00,
2013-04-26 00:44:00,49.8,45.4,30.10,NW,310,0.0,2.0,85,0.00,,,0.00,0,HR-IXPWINDi_r2_v1.2.,2013-04-26 07:44:00,
2013-04-26 00:49:00,49.6,45.2,30.10,NW,310,0.0,2.0,85,0.00,,,0.00,0,HR-IXPWINDi_r2_v1.2.,2013-04-26 07:49:00,
2013-04-26 00:54:00,49.2,44.8,30.10,NW,310,0.0,1.0,85,0.00,,,0.00,0,HR-IXPWINDi_r2_v1.2.,2013-04-26 07:54:00,
2013-04-26 00:59:00,49.2,45.1,30.10,NW,310,0.0,1.0,86,0.00,,,0.00,0,HR-IXPWINDi_r2_v1.2.,2013-04-26 07:59:00,
2013-04-26 01:05:00,49.0,44.9,30.10,NW,310,0.0,1.0,86,0.00,,,0.00,0,HR-IXPWINDi_r2_v1.2.,2013-04-26 08:05:00,
2013-04-26 01:12:00,49.0,45.2,30.10,NW,310,0.0,1.0,87,0.00,,,0.00,0,HR-IXPWINDi_r2_v1.2.,2013-04-26 08:12:00,
2013-04-26 01:17:00,49.0,45.2,30.10,NW,310,0.0,1.0,87,0.00,,,0.00,0,HR-IXPWINDi_r2_v1.2.,2013-04-26 08:17:00,
2013-04-26 01:23:00,49.1,45.3,30.10,NW,310,0.0,2.0,87,0.00,,,0.00,0,HR-IXPWINDi_r2_v1.2.,2013-04-26 08:23:00,
2013-04-26 01:29:00,49.1,45.3,30.10,NW,310,2.0,2.0,87,0.00,,,0.00,0,HR-IXPWINDi_r2_v1.2.,2013-04-26 08:29:00,
2013-04-26 01:34:00,49.2,45.1,30.10,NW,310,1.0,2.0,86,0.00,,,0.00,0,HR-IXPWINDi_r2_v1.2.,2013-04-26 08:34:00,
2013-04-26 01:39:00,49.1,45.0,30.10,NW,310,0.0,2.0,86,0.00,,,0.00,0,HR-IXPWINDi_r2_v1.2.,2013-04-26 08:39:00,
2013-04-26 01:44:00,49.3,45.2,30.10,NW,310,1.0,2.0,86,0.00,,,0.00,0,HR-IXPWINDi_r2_v1.2.,2013-04-26 08:44:00,
2013-04-26 01:50:00,49.1,45.0,30.10,NW,310,0.0,2.0,86,0.00,,,0.00,0,HR-IXPWINDi_r2_v1.2.,2013-04-26 08:50:00,
2013-04-26 01:55:00,48.8,44.7,30.10,NW,310,0.0,2.0,86,0.00,,,0.00,0,HR-IXPWINDi_r2_v1.2.,2013-04-26 08:55:00,
2013-04-26 02:00:00,48.7,44.9,30.10,NW,310,0.0,0.0,87,0.00,,,0.00,0,HR-IXPWINDi_r2_v1.2.,2013-04-26 09:00:00,
2013-04-26 02:05:00,48.4,44.7,30.10,NW,310,1.0,1.0,87,0.00,,,0.00,0,HR-IXPWINDi_r2_v1.2.,2013-04-26 09:05:00,
2013-04-26 02:10:00,48.3,44.9,30.09,NW,310,0.0,2.0,88,0.00,,,0.00,0,HR-IXPWINDi_r2_v1.2.,2013-04-26 09:10:00,
2013-04-26 02:15:00,48.2,44.8,30.10,WNW,303,0.0,2.0,88,0.00,,,0.00,0,HR-IXPWINDi_r2_v1.2.,2013-04-26 09:15:00,
2013-04-26 02:21:00,48.2,44.8,30.09,WNW,303,0.0,2.0,88,0.00,,,0.00,0,HR-IXPWINDi_r2_v1.2.,2013-04-26 09:21:00,
2013-04-26 02:26:00,48.0,44.6,30.10,WNW,303,0.0,2.0,88,0.00,,,0.00,0,HR-IXPWINDi_r2_v1.2.,2013-04-26 09:26:00,
2013-04-26 02:31:00,47.9,44.5,30.09,WNW,303,0.0,1.0,88,0.00,,,0.00,0,HR-IXPWINDi_r2_v1.2.,2013-04-26 09:31:00,
2013-04-26 02:37:00,48.1,44.7,30.10,WNW,303,0.0,1.0,88,0.00,,,0.00,0,HR-IXPWINDi_r2_v1.2.,2013-04-26 09:37:00,
2013-04-26 02:42:00,47.9,44.5,30.09,WNW,303,0.0,1.0,88,0.00,,,0.00,0,HR-IXPWINDi_r2_v1.2.,2013-04-26 09:42:00,
2013-04-26 02:47:00,47.4,44.0,30.09,NW,305,0.0,2.0,88,0.00,,,0.00,0,HR-IXPWINDi_r2_v1.2.,2013-04-26 09:47:00,
2013-04-26 02:52:00,47.5,44.4,30.10,NW,306,0.0,2.0,89,0.00,,,0.00,0,HR-IXPWINDi_r2_v1.2.,2013-04-26 09:52:00,
2013-04-26 02:58:00,47.5,44.4,30.10,NW,306,0.0,2.0,89,0.00,,,0.00,0,HR-IXPWINDi_r2_v1.2.,2013-04-26 09:58:00,
2013-04-26 03:03:00,47.6,44.5,30.10,NW,308,1.0,2.0,89,0.00,,,0.00,0,HR-IXPWINDi_r2_v1.2.,2013-04-26 10:03:00,
2013-04-26 03:08:00,47.4,44.3,30.10,NW,308,0.0,2.0,89,0.00,,,0.00,0,HR-IXPWINDi_r2_v1.2.,2013-04-26 10:08:00,
2013-04-26 03:13:00,47.2,44.1,30.10,NW,308,1.0,2.0,89,0.00,,,0.00,0,HR-IXPWINDi_r2_v1.2.,2013-04-26 10:13:00,
2013-04-26 03:18:00,47.5,44.7,30.10,NW,313,1.0,3.0,90,0.00,,,0.00,0,HR-IXPWINDi_r2_v1.2.,2013-04-26 10:18:00,
2013-04-26 03:24:00,47.9,44.8,30.10,WNW,290,3.0,5.0,89,0.00,,,0.00,0,HR-IXPWINDi_r2_v1.2.,2013-04-26 10:24:00,
2013-04-26 03:29:00,47.8,44.4,30.10,WNW,290,2.0,5.0,88,0.00,,,0.00,0,HR-IXPWINDi_r2_v1.2.,2013-04-26 10:29:00,
2013-04-26 03:34:00,47.5,44.1,30.10,WNW,290,1.0,2.0,88,0.00,,,0.00,0,HR-IXPWINDi_r2_v1.2.,2013-04-26 10:34:00,
2013-04-26 03:39:00,47.4,44.0,30.10,WNW,291,0.0,2.0,88,0.00,,,0.00,0,HR-IXPWINDi_r2_v1.2.,2013-04-26 10:39:00,
2013-04-26 03:44:00,47.2,44.1,30.10,WNW,291,0.0,2.0,89,0.00,,,0.00,0,HR-IXPWINDi_r2_v1.2.,2013-04-26 10:44:00,
2013-04-26 03:50:00,47.0,43.9,30.10,WNW,291,0.0,2.0,89,0.00,,,0.00,0,HR-IXPWINDi_r2_v1.2.,2013-04-26 10:50:00,
2013-04-26 03:55:00,47.4,44.6,30.10,WNW,297,0.0,3.0,90,0.00,,,0.00,0,HR-IXPWINDi_r2_v1.2.,2013-04-26 10:55:00,
2013-04-26 04:00:00,47.2,44.1,30.10,WNW,297,1.0,3.0,89,0.00,,,0.00,0,HR-IXPWINDi_r2_v1.2.,2013-04-26 11:00:00,
2013-04-26 04:05:00,47.1,44.0,30.10,WNW,297,1.0,2.0,89,0.00,,,0.00,0,HR-IXPWINDi_r2_v1.2.,2013-04-26 11:05:00,
2013-04-26 04:10:00,47.1,44.3,30.10,WNW,297,0.0,2.0,90,0.00,,,0.00,0,HR-IXPWINDi_r2_v1.2.,2013-04-26 11:10:00,
2013-04-26 04:15:00,47.2,44.4,30.10,WNW,297,0.0,2.0,90,0.00,,,0.00,0,HR-IXPWINDi_r2_v1.2.,2013-04-26 11:15:00,
2013-04-26 04:21:00,47.0,43.9,30.10,WNW,297,0.0,2.0,89,0.00,,,0.00,0,HR-IXPWINDi_r2_v1.2.,2013-04-26 11:21:00,
2013-04-26 04:27:00,47.2,44.4,30.10,NW,315,0.0,4.0,90,0.00,,,0.00,0,HR-IXPWINDi_r2_v1.2.,2013-04-26 11:27:00,
2013-04-26 04:32:00,47.2,44.4,30.10,NW,313,2.0,4.0,90,0.00,,,0.00,0,HR-IXPWINDi_r2_v1.2.,2013-04-26 11:32:00,
2013-04-26 04:37:00,47.2,44.4,30.10,NW,315,1.0,4.0,90,0.00,,,0.00,0,HR-IXPWINDi_r2_v1.2.,2013-04-26 11:37:00,
2013-04-26 04:42:00,47.2,44.4,30.10,NW,311,3.0,4.0,90,0.00,,,0.00,0,HR-IXPWINDi_r2_v1.2.,2013-04-26 11:42:00,
2013-04-26 04:48:00,47.3,44.2,30.09,NW,305,1.0,4.0,89,0.00,,,0.00,0,HR-IXPWINDi_r2_v1.2.,2013-04-26 11:48:00,
2013-04-26 04:53:00,47.2,44.1,30.09,NW,305,0.0,4.0,89,0.00,,,0.00,0,HR-IXPWINDi_r2_v1.2.,2013-04-26 11:53:00,
2013-04-26 04:58:00,47.0,44.2,30.09,NW,305,1.0,2.0,90,0.00,,,0.00,0,HR-IXPWINDi_r2_v1.2.,2013-04-26 11:58:00,
2013-04-26 05:03:00,47.0,44.2,30.09,NW,305,0.0,2.0,90,0.00,,,0.00,0,HR-IXPWINDi_r2_v1.2.,2013-04-26 12:03:00,
2013-04-26 05:08:00,46.8,44.0,30.09,NW,305,0.0,2.0,90,0.00,,,0.00,0,HR-IXPWINDi_r2_v1.2.,2013-04-26 12:08:00,
2013-04-26 05:14:00,46.5,43.7,30.09,NW,305,0.0,1.0,90,0.00,,,0.00,0,HR-IXPWINDi_r2_v1.2.,2013-04-26 12:14:00,
2013-04-26 05:19:00,46.3,43.5,30.09,NW,305,0.0,0.0,90,0.00,,,0.00,0,HR-IXPWINDi_r2_v1.2.,2013-04-26 12:19:00,
2013-04-26 05:24:00,46.0,43.2,30.10,NW,305,0.0,0.0,90,0.00,,,0.00,0,HR-IXPWINDi_r2_v1.2.,2013-04-26 12:24:00,
2013-04-26 05:29:00,45.5,42.7,30.10,NW,305,1.0,1.0,90,0.00,,,0.00,0,HR-IXPWINDi_r2_v1.2.,2013-04-26 12:29:00,
2013-04-26 05:35:00,45.8,43.3,30.10,NW,305,0.0,2.0,91,0.00,,,0.00,0,HR-IXPWINDi_r2_v1.2.,2013-04-26 12:35:00,
2013-04-26 05:40:00,45.8,43.3,30.10,NW,305,0.0,2.0,91,0.00,,,0.00,0,HR-IXPWINDi_r2_v1.2.,2013-04-26 12:40:00,
2013-04-26 05:45:00,46.3,44.0,30.10,NW,305,0.0,2.0,92,0.00,,,0.00,0,HR-IXPWINDi_r2_v1.2.,2013-04-26 12:45:00,
2013-04-26 05:50:00,46.5,44.2,30.10,NW,307,0.0,3.0,92,0.00,,,0.00,0,HR-IXPWINDi_r2_v1.2.,2013-04-26 12:50:00,
2013-04-26 05:55:00,46.5,44.0,30.10,NW,307,1.0,3.0,91,0.00,,,0.00,0,HR-IXPWINDi_r2_v1.2.,2013-04-26 12:55:00,
2013-04-26 06:00:00,46.3,43.8,30.10,NW,307,1.0,2.0,91,0.00,,,0.00,0,HR-IXPWINDi_r2_v1.2.,2013-04-26 13:00:00,
2013-04-26 06:06:00,46.4,44.1,30.10,NW,311,0.0,2.0,92,0.00,,,0.00,0,HR-IXPWINDi_r2_v1.2.,2013-04-26 13:06:00,
2013-04-26 06:11:00,46.6,44.1,30.10,NW,311,0.0,2.0,91,0.00,,,0.00,0,HR-IXPWINDi_r2_v1.2.,2013-04-26 13:11:00,
2013-04-26 06:16:00,46.7,44.2,30.10,NW,311,3.0,5.0,91,0.00,,,0.00,5,HR-IXPWINDi_r2_v1.2.,2013-04-26 13:16:00,
2013-04-26 06:21:00,47.0,44.5,30.10,WNW,301,3.0,5.0,91,0.00,,,0.00,9,HR-IXPWINDi_r2_v1.2.,2013-04-26 13:21:00,
2013-04-26 06:26:00,47.3,44.7,30.10,NW,315,0.0,4.0,91,0.00,,,0.00,12,HR-IXPWINDi_r2_v1.2.,2013-04-26 13:26:00,
2013-04-26 06:31:00,47.3,44.5,30.11,WNW,292,1.0,4.0,90,0.00,,,0.00,16,HR-IXPWINDi_r2_v1.2.,2013-04-26 13:31:00,
2013-04-26 06:36:00,47.4,44.6,30.11,WSW,242,0.0,2.0,90,0.00,,,0.00,19,HR-IXPWINDi_r2_v1.2.,2013-04-26 13:36:00,
2013-04-26 06:42:00,47.2,44.4,30.11,WSW,242,0.0,2.0,90,0.00,,,0.00,23,HR-IXPWINDi_r2_v1.2.,2013-04-26 13:42:00,
2013-04-26 06:47:00,47.1,44.3,30.11,WSW,242,0.0,2.0,90,0.00,,,0.00,32,HR-IXPWINDi_r2_v1.2.,2013-04-26 13:47:00,
2013-04-26 06:52:00,47.0,44.2,30.11,WSW,242,0.0,1.0,90,0.00,,,0.00,37,HR-IXPWINDi_r2_v1.2.,2013-04-26 13:52:00,
2013-04-26 06:57:00,47.1,44.6,30.12,WSW,242,0.0,0.0,91,0.00,,,0.00,44,HR-IXPWINDi_r2_v1.2.,2013-04-26 13:57:00,
2013-04-26 07:02:00,47.5,44.9,30.12,WSW,242,0.0,0.0,91,0.00,,,0.00,79,HR-IXPWINDi_r2_v1.2.,2013-04-26 14:02:00,
2013-04-26 07:07:00,48.1,45.5,30.12,WSW,242,0.0,0.0,91,0.00,,,0.00,95,HR-IXPWINDi_r2_v1.2.,2013-04-26 14:07:00,
2013-04-26 07:12:00,48.8,45.9,30.12,WSW,242,0.0,0.0,90,0.00,,,0.00,107,HR-IXPWINDi_r2_v1.2.,2013-04-26 14:12:00,
2013-04-26 07:18:00,49.7,46.5,30.12,WSW,242,0.0,0.0,89,0.00,,,0.00,116,HR-IXPWINDi_r2_v1.2.,2013-04-26 14:18:00,
2013-04-26 07:23:00,50.9,47.4,30.12,North,9,3.0,3.0,88,0.00,,,0.00,132,HR-IXPWINDi_r2_v1.2.,2013-04-26 14:23:00,
2013-04-26 07:28:00,52.1,48.3,30.12,NNE,16,0.0,3.0,87,0.00,,,0.00,151,HR-IXPWINDi_r2_v1.2.,2013-04-26 14:28:00,
2013-04-26 07:33:00,53.2,48.7,30.12,NNE,16,0.0,3.0,85,0.00,,,0.00,171,HR-IXPWINDi_r2_v1.2.,2013-04-26 14:33:00,
2013-04-26 07:39:00,54.3,49.2,30.12,NNE,16,0.0,2.0,83,0.00,,,0.00,190,HR-IXPWINDi_r2_v1.2.,2013-04-26 14:39:00,
2013-04-26 07:44:00,55.3,49.5,30.12,NNE,16,0.0,1.0,81,0.00,,,0.00,204,HR-IXPWINDi_r2_v1.2.,2013-04-26 14:44:00,
2013-04-26 07:49:00,56.0,49.9,30.12,NNE,16,0.0,1.0,80,0.00,,,0.00,216,HR-IXPWINDi_r2_v1.2.,2013-04-26 14:49:00,
2013-04-26 07:54:00,55.9,49.1,30.12,NNE,16,0.0,1.0,78,0.00,,,0.00,227,HR-IXPWINDi_r2_v1.2.,2013-04-26 14:54:00,
2013-04-26 07:59:00,56.2,49.7,30.12,NNE,19,0.0,1.0,79,0.00,,,0.00,236,HR-IXPWINDi_r2_v1.2.,2013-04-26 14:59:00,
2013-04-26 08:04:00,56.6,49.4,30.12,NNE,19,0.0,1.0,77,0.00,,,0.00,241,HR-IXPWINDi_r2_v1.2.,2013-04-26 15:04:00,
2013-04-26 08:09:00,56.8,48.9,30.12,NNE,19,0.0,1.0,75,0.00,,,0.00,244,HR-IXPWINDi_r2_v1.2.,2013-04-26 15:09:00,
2013-04-26 08:15:00,57.2,49.3,30.12,NE,41,1.0,2.0,75,0.00,,,0.00,248,HR-IXPWINDi_r2_v1.2.,2013-04-26 15:15:00,
2013-04-26 08:20:00,59.1,50.4,30.12,NE,41,2.0,2.0,73,0.00,,,0.00,251,HR-IXPWINDi_r2_v1.2.,2013-04-26 15:20:00,
2013-04-26 08:25:00,60.2,50.3,30.12,NE,41,0.0,2.0,70,0.00,,,0.00,258,HR-IXPWINDi_r2_v1.2.,2013-04-26 15:25:00,
2013-04-26 08:30:00,59.8,49.9,30.12,East,83,1.0,2.0,70,0.00,,,0.00,272,HR-IXPWINDi_r2_v1.2.,2013-04-26 15:30:00,
2013-04-26 08:36:00,60.2,50.7,30.12,East,83,0.0,2.0,71,0.00,,,0.00,295,HR-IXPWINDi_r2_v1.2.,2013-04-26 15:36:00,
2013-04-26 08:41:00,61.2,51.7,30.12,East,83,2.0,3.0,71,0.00,,,0.00,323,HR-IXPWINDi_r2_v1.2.,2013-04-26 15:41:00,
2013-04-26 08:46:00,62.3,51.1,30.12,East,83,0.0,3.0,67,0.00,,,0.00,362,HR-IXPWINDi_r2_v1.2.,2013-04-26 15:46:00,
2013-04-26 08:51:00,62.8,51.2,30.12,East,83,0.0,3.0,66,0.00,,,0.00,404,HR-IXPWINDi_r2_v1.2.,2013-04-26 15:51:00,
2013-04-26 08:56:00,63.6,51.1,30.12,East,94,1.0,2.0,64,0.00,,,0.00,454,HR-IXPWINDi_r2_v1.2.,2013-04-26 15:56:00,
2013-04-26 09:01:00,64.4,51.0,30.12,ESE,111,0.0,2.0,62,0.00,,,0.00,494,HR-IXPWINDi_r2_v1.2.,2013-04-26 16:01:00,
2013-04-26 09:07:00,64.8,52.3,30.12,SE,144,0.0,3.0,64,0.00,,,0.00,513,HR-IXPWINDi_r2_v1.2.,2013-04-26 16:07:00,
2013-04-26 09:12:00,66.2,52.7,30.12,East,84,0.0,3.0,62,0.00,,,0.00,531,HR-IXPWINDi_r2_v1.2.,2013-04-26 16:12:00,
2013-04-26 09:17:00,66.1,50.8,30.12,South,183,2.0,3.0,58,0.00,,,0.00,548,HR-IXPWINDi_r2_v1.2.,2013-04-26 16:17:00,
2013-04-26 09:23:00,66.7,52.3,30.12,South,184,1.0,5.0,60,0.00,,,0.00,563,HR-IXPWINDi_r2_v1.2.,2013-04-26 16:23:00,
2013-04-26 09:28:00,67.4,52.1,30.12,SSE,159,1.0,5.0,58,0.00,,,0.00,578,HR-IXPWINDi_r2_v1.2.,2013-04-26 16:28:00,
2013-04-26 09:33:00,67.6,52.2,30.12,South,184,2.0,5.0,58,0.00,,,0.00,596,HR-IXPWINDi_r2_v1.2.,2013-04-26 16:33:00,
2013-04-26 09:39:00,68.5,52.6,30.12,SE,146,4.0,5.0,57,0.00,,,0.00,610,HR-IXPWINDi_r2_v1.2.,2013-04-26 16:39:00,
2013-04-26 09:44:00,69.8,52.9,30.12,South,171,1.0,5.0,55,0.00,,,0.00,624,HR-IXPWINDi_r2_v1.2.,2013-04-26 16:44:00,
2013-04-26 09:49:00,69.3,51.4,30.12,South,175,1.0,6.0,53,0.00,,,0.00,638,HR-IXPWINDi_r2_v1.2.,2013-04-26 16:49:00,
2013-04-26 09:54:00,70.6,53.1,30.12,SSE,164,2.0,6.0,54,0.00,,,0.00,652,HR-IXPWINDi_r2_v1.2.,2013-04-26 16:54:00,
2013-04-26 10:00:00,70.8,51.7,30.12,South,176,4.0,5.0,51,0.00,,,0.00,657,HR-IXPWINDi_r2_v1.2.,2013-04-26 17:00:00,
2013-04-26 10:05:00,70.1,52.1,30.12,SSE,161,1.0,5.0,53,0.00,,,0.00,647,HR-IXPWINDi_r2_v1.2.,2013-04-26 17:05:00,
2013-04-26 10:10:00,71.9,53.3,30.12,SE,144,1.0,5.0,52,0.00,,,0.00,621,HR-IXPWINDi_r2_v1.2.,2013-04-26 17:10:00,
2013-04-26 10:16:00,72.0,52.3,30.12,ESE,113,0.0,3.0,50,0.00,,,0.00,596,HR-IXPWINDi_r2_v1.2.,2013-04-26 17:16:00,
2013-04-26 10:21:00,73.2,52.8,30.12,South,181,2.0,5.0,49,0.00,,,0.00,578,HR-IXPWINDi_r2_v1.2.,2013-04-26 17:21:00,
2013-04-26 10:26:00,72.8,52.5,30.12,South,181,3.0,5.0,49,0.00,,,0.00,577,HR-IXPWINDi_r2_v1.2.,2013-04-26 17:26:00,
2013-04-26 10:31:00,73.8,53.4,30.12,ESE,105,1.0,4.0,49,0.00,,,0.00,584,HR-IXPWINDi_r2_v1.2.,2013-04-26 17:31:00,
2013-04-26 10:37:00,73.6,52.7,30.12,SSE,165,2.0,5.0,48,0.00,,,0.00,624,HR-IXPWINDi_r2_v1.2.,2013-04-26 17:37:00,
2013-04-26 10:42:00,72.8,53.0,30.12,South,171,1.0,6.0,50,0.00,,,0.00,666,HR-IXPWINDi_r2_v1.2.,2013-04-26 17:42:00,
2013-04-26 10:47:00,73.7,53.3,30.11,ESE,109,0.0,6.0,49,0.00,,,0.00,714,HR-IXPWINDi_r2_v1.2.,2013-04-26 17:47:00,
2013-04-26 10:52:00,75.1,54.0,30.11,SE,128,0.0,6.0,48,0.00,,,0.00,749,HR-IXPWINDi_r2_v1.2.,2013-04-26 17:52:00,
2013-04-26 10:58:00,73.6,52.1,30.11,South,185,2.0,6.0,47,0.00,,,0.00,775,HR-IXPWINDi_r2_v1.2.,2013-04-26 17:58:00,
2013-04-26 11:03:00,72.4,51.0,30.11,WSW,244,3.0,7.0,47,0.00,,,0.00,802,HR-IXPWINDi_r2_v1.2.,2013-04-26 18:03:00,
2013-04-26 11:08:00,74.2,53.8,30.11,SSE,164,5.0,7.0,49,0.00,,,0.00,812,HR-IXPWINDi_r2_v1.2.,2013-04-26 18:08:00,
2013-04-26 11:13:00,75.8,53.5,30.11,SSW,213,3.0,5.0,46,0.00,,,0.00,821,HR-IXPWINDi_r2_v1.2.,2013-04-26 18:13:00,
2013-04-26 11:18:00,74.1,51.4,30.11,South,175,4.0,5.0,45,0.00,,,0.00,830,HR-IXPWINDi_r2_v1.2.,2013-04-26 18:18:00,
2013-04-26 11:23:00,76.5,55.3,30.11,South,175,1.0,7.0,48,0.00,,,0.00,840,HR-IXPWINDi_r2_v1.2.,2013-04-26 18:23:00,
2013-04-26 11:29:00,78.4,54.0,30.11,SE,129,0.0,7.0,43,0.00,,,0.00,849,HR-IXPWINDi_r2_v1.2.,2013-04-26 18:29:00,
2013-04-26 11:34:00,76.0,51.8,30.11,South,187,3.0,8.0,43,0.00,,,0.00,853,HR-IXPWINDi_r2_v1.2.,2013-04-26 18:34:00,
2013-04-26 11:39:00,77.5,54.4,30.11,South,169,2.0,8.0,45,0.00,,,0.00,860,HR-IXPWINDi_r2_v1.2.,2013-04-26 18:39:00,
2013-04-26 11:45:00,77.5,53.8,30.11,SE,141,0.0,10.0,44,0.00,,,0.00,863,HR-IXPWINDi_r2_v1.2.,2013-04-26 18:45:00,
2013-04-26 11:50:00,76.4,54.6,30.11,South,172,4.0,10.0,47,0.00,,,0.00,870,HR-IXPWINDi_r2_v1.2.,2013-04-26 18:50:00,
2013-04-26 11:55:00,76.0,54.3,30.11,South,185,3.0,8.0,47,0.00,,,0.00,872,HR-IXPWINDi_r2_v1.2.,2013-04-26 18:55:00,
2013-04-26 12:00:00,75.9,55.3,30.11,SSE,162,4.0,8.0,49,0.00,,,0.00,877,HR-IXPWINDi_r2_v1.2.,2013-04-26 19:00:00,
2013-04-26 12:05:00,75.4,53.7,30.11,South,175,2.0,10.0,47,0.00,,,0.00,881,HR-IXPWINDi_r2_v1.2.,2013-04-26 19:05:00,
2013-04-26 12:11:00,75.6,53.9,30.11,SSE,167,4.0,10.0,47,0.00,,,0.00,860,HR-IXPWINDi_r2_v1.2.,2013-04-26 19:11:00,
2013-04-26 12:16:00,76.6,55.4,30.11,SSE,163,2.0,10.0,48,0.00,,,0.00,819,HR-IXPWINDi_r2_v1.2.,2013-04-26 19:16:00,
2013-04-26 12:21:00,77.7,54.6,30.10,South,188,2.0,8.0,45,0.00,,,0.00,779,HR-IXPWINDi_r2_v1.2.,2013-04-26 19:21:00,
2013-04-26 12:26:00,78.0,54.3,30.10,South,171,4.0,9.0,44,0.00,,,0.00,759,HR-IXPWINDi_r2_v1.2.,2013-04-26 19:26:00,
2013-04-26 12:32:00,77.6,53.9,30.10,SSE,167,2.0,9.0,44,0.00,,,0.00,765,HR-IXPWINDi_r2_v1.2.,2013-04-26 19:32:00,
2013-04-26 12:37:00,76.7,54.3,30.10,South,178,1.0,9.0,46,0.00,,,0.00,795,HR-IXPWINDi_r2_v1.2.,2013-04-26 19:37:00,
2013-04-26 12:42:00,77.6,52.7,30.10,SSE,156,4.0,9.0,42,0.00,,,0.00,842,HR-IXPWINDi_r2_v1.2.,2013-04-26 19:42:00,
2013-04-26 12:47:00,77.7,54.0,30.10,SSE,165,4.0,9.0,44,0.00,,,0.00,886,HR-IXPWINDi_r2_v1.2.,2013-04-26 19:47:00,
2013-04-26 12:53:00,76.4,52.2,30.10,SSW,196,4.0,11.0,43,0.00,,,0.00,900,HR-IXPWINDi_r2_v1.2.,2013-04-26 19:53:00,
2013-04-26 12:57:00,75.8,52.9,30.10,South,181,4.0,11.0,45,0.00,,,0.00,900,HR-IXPWINDi_r2_v1.2.,2013-04-26 19:57:00,
2013-04-26 13:03:00,75.0,52.2,30.10,South,171,3.0,11.0,45,0.00,,,0.00,898,HR-IXPWINDi_r2_v1.2.,2013-04-26 20:03:00,
2013-04-26 13:08:00,75.4,52.5,30.10,SSE,158,1.0,10.0,45,0.00,,,0.00,898,HR-IXPWINDi_r2_v1.2.,2013-04-26 20:08:00,
2013-04-26 13:13:00,77.1,53.5,30.10,South,187,4.0,10.0,44,0.00,,,0.00,898,HR-IXPWINDi_r2_v1.2.,2013-04-26 20:13:00,
2013-04-26 13:18:00,75.6,53.3,30.10,SSW,196,6.0,10.0,46,0.00,,,0.00,896,HR-IXPWINDi_r2_v1.2.,2013-04-26 20:18:00,
2013-04-26 13:23:00,75.5,52.0,30.10,SSE,149,5.0,11.0,44,0.00,,,0.00,896,HR-IXPWINDi_r2_v1.2.,2013-04-26 20:23:00,
2013-04-26 13:28:00,76.4,52.8,30.10,SSE,167,5.0,11.0,44,0.00,,,0.00,891,HR-IXPWINDi_r2_v1.2.,2013-04-26 20:28:00,
2013-04-26 13:34:00,76.6,52.4,30.10,SSW,209,5.0,11.0,43,0.00,,,0.00,889,HR-IXPWINDi_r2_v1.2.,2013-04-26 20:34:00,
2013-04-26 13:39:00,76.7,51.8,30.10,ESE,117,3.0,10.0,42,0.00,,,0.00,886,HR-IXPWINDi_r2_v1.2.,2013-04-26 20:39:00,
2013-04-26 13:44:00,76.6,53.0,30.10,South,175,2.0,10.0,44,0.00,,,0.00,881,HR-IXPWINDi_r2_v1.2.,2013-04-26 20:44:00,
2013-04-26 13:49:00,76.9,53.3,30.10,SE,129,6.0,13.0,44,0.00,,,0.00,879,HR-IXPWINDi_r2_v1.2.,2013-04-26 20:49:00,
2013-04-26 13:55:00,75.2,51.1,30.10,SSE,165,4.0,13.0,43,0.00,,,0.00,870,HR-IXPWINDi_r2_v1.2.,2013-04-26 20:55:00,
2013-04-26 14:00:00,74.4,51.6,30.10,South,171,7.0,11.0,45,0.00,,,0.00,865,HR-IXPWINDi_r2_v1.2.,2013-04-26 21:00:00,
2013-04-26 14:05:00,73.6,50.9,30.10,South,187,5.0,12.0,45,0.00,,,0.00,858,HR-IXPWINDi_r2_v1.2.,2013-04-26 21:05:00,
2013-04-26 14:10:00,75.2,51.7,30.10,South,178,10.0,12.0,44,0.00,,,0.00,853,HR-IXPWINDi_r2_v1.2.,2013-04-26 21:10:00,
2013-04-26 14:15:00,75.0,52.2,30.09,South,186,7.0,11.0,45,0.00,,,0.00,842,HR-IXPWINDi_r2_v1.2.,2013-04-26 21:15:00,
2013-04-26 14:21:00,75.3,52.4,30.09,South,182,6.0,11.0,45,0.00,,,0.00,838,HR-IXPWINDi_r2_v1.2.,2013-04-26 21:21:00,
2013-04-26 14:26:00,75.5,52.0,30.09,SSE,163,2.0,8.0,44,0.00,,,0.00,828,HR-IXPWINDi_r2_v1.2.,2013-04-26 21:26:00,
2013-04-26 14:31:00,75.0,52.2,30.09,South,182,2.0,11.0,45,0.00,,,0.00,819,HR-IXPWINDi_r2_v1.2.,2013-04-26 21:31:00,
2013-04-26 14:37:00,74.1,50.8,30.09,SSW,193,3.0,11.0,44,0.00,,,0.00,810,HR-IXPWINDi_r2_v1.2.,2013-04-26 21:37:00,
2013-04-26 14:42:00,74.9,51.5,30.09,SSW,199,8.0,12.0,44,0.00,,,0.00,802,HR-IXPWINDi_r2_v1.2.,2013-04-26 21:42:00,
2013-04-26 14:47:00,75.0,52.8,30.09,South,169,2.0,12.0,46,0.00,,,0.00,791,HR-IXPWINDi_r2_v1.2.,2013-04-26 21:47:00,
2013-04-26 14:52:00,76.5,52.9,30.09,SSW,210,6.0,11.0,44,0.00,,,0.00,780,HR-IXPWINDi_r2_v1.2.,2013-04-26 21:52:00,
2013-04-26 14:58:00,75.5,51.4,30.09,SSW,195,4.0,9.0,43,0.00,,,0.00,770,HR-IXPWINDi_r2_v1.2.,2013-04-26 21:58:00,
2013-04-26 15:03:00,75.8,52.3,30.09,SE,126,1.0,9.0,44,0.00,,,0.00,758,HR-IXPWINDi_r2_v1.2.,2013-04-26 22:03:00,
2013-04-26 15:08:00,76.7,53.1,30.08,SSE,156,1.0,7.0,44,0.00,,,0.00,745,HR-IXPWINDi_r2_v1.2.,2013-04-26 22:08:00,
2013-04-26 15:13:00,76.2,52.0,30.08,SE,128,2.0,10.0,43,0.00,,,0.00,735,HR-IXPWINDi_r2_v1.2.,2013-04-26 22:13:00,
2013-04-26 15:19:00,75.7,51.6,30.08,SSW,194,6.0,10.0,43,0.00,,,0.00,724,HR-IXPWINDi_r2_v1.2.,2013-04-26 22:19:00,
2013-04-26 15:24:00,75.2,51.7,30.08,South,169,2.0,9.0,44,0.00,,,0.00,712,HR-IXPWINDi_r2_v1.2.,2013-04-26 22:24:00,
2013-04-26 15:29:00,75.0,52.8,30.08,SSE,166,4.0,9.0,46,0.00,,,0.00,698,HR-IXPWINDi_r2_v1.2.,2013-04-26 22:29:00,
2013-04-26 15:35:00,74.8,50.8,30.08,South,177,4.0,9.0,43,0.00,,,0.00,684,HR-IXPWINDi_r2_v1.2.,2013-04-26 22:35:00,
2013-04-26 15:40:00,73.8,51.1,30.08,SSW,207,6.0,11.0,45,0.00,,,0.00,671,HR-IXPWINDi_r2_v1.2.,2013-04-26 22:40:00,
2013-04-26 15:45:00,74.1,52.5,30.08,SE,146,5.0,11.0,47,0.00,,,0.00,656,HR-IXPWINDi_r2_v1.2.,2013-04-26 22:45:00,
2013-04-26 15:50:00,73.4,51.9,30.08,SSE,148,4.0,11.0,47,0.00,,,0.00,643,HR-IXPWINDi_r2_v1.2.,2013-04-26 22:50:00,
2013-04-26 15:56:00,73.6,52.7,30.08,SSW,195,5.0,11.0,48,0.00,,,0.00,628,HR-IXPWINDi_r2_v1.2.,2013-04-26 22:56:00,
2013-04-26 16:01:00,73.6,51.5,30.08,SSE,167,4.0,11.0,46,0.00,,,0.00,615,HR-IXPWINDi_r2_v1.2.,2013-04-26 23:01:00,
2013-04-26 16:06:00,73.1,52.8,30.07,ESE,114,4.0,11.0,49,0.00,,,0.00,599,HR-IXPWINDi_r2_v1.2.,2013-04-26 23:06:00,
2013-04-26 16:11:00,72.8,50.8,30.08,South,190,6.0,10.0,46,0.00,,,0.00,585,HR-IXPWINDi_r2_v1.2.,2013-04-26 23:11:00,
2013-04-26 16:16:00,72.6,51.7,30.07,SSE,151,2.0,10.0,48,0.00,,,0.00,568,HR-IXPWINDi_r2_v1.2.,2013-04-26 23:16:00,
2013-04-26 16:22:00,73.3,52.9,30.07,SE,135,1.0,8.0,49,0.00,,,0.00,554,HR-IXPWINDi_r2_v1.2.,2013-04-26 23:22:00,
2013-04-26 16:27:00,73.5,52.0,30.07,South,180,3.0,10.0,47,0.00,,,0.00,536,HR-IXPWINDi_r2_v1.2.,2013-04-26 23:27:00,
2013-04-26 16:32:00,71.7,52.0,30.07,South,191,5.0,10.0,50,0.00,,,0.00,522,HR-IXPWINDi_r2_v1.2.,2013-04-26 23:32:00,
2013-04-26 16:37:00,71.4,52.3,30.07,South,179,5.0,10.0,51,0.00,,,0.00,503,HR-IXPWINDi_r2_v1.2.,2013-04-26 23:37:00,
2013-04-26 16:42:00,71.9,52.2,30.07,South,182,6.0,10.0,50,0.00,,,0.00,487,HR-IXPWINDi_r2_v1.2.,2013-04-26 23:42:00,
2013-04-26 16:48:00,72.1,52.9,30.07,SSE,160,6.0,8.0,51,0.00,,,0.00,469,HR-IXPWINDi_r2_v1.2.,2013-04-26 23:48:00,
2013-04-26 16:52:00,72.3,53.6,30.07,SE,142,1.0,8.0,52,0.00,,,0.00,450,HR-IXPWINDi_r2_v1.2.,2013-04-26 23:52:00,
2013-04-26 17:06:00,71.6,53.0,30.07,SSE,157,2.0,8.0,52,0.00,,,0.00,410,HR-IXPWINDi_r2_v1.2.,2013-04-27 00:06:00,
2013-04-26 17:11:00,71.3,53.2,30.07,SSE,166,3.0,7.0,53,0.00,,,0.00,392,HR-IXPWINDi_r2_v1.2.,2013-04-27 00:11:00,
2013-04-26 17:16:00,70.4,51.9,30.07,SSW,210,1.0,5.0,52,0.00,,,0.00,376,HR-IXPWINDi_r2_v1.2.,2013-04-27 00:16:00,
2013-04-26 17:21:00,69.8,52.4,30.07,South,174,3.0,6.0,54,0.00,,,0.00,357,HR-IXPWINDi_r2_v1.2.,2013-04-27 00:21:00,
2013-04-26 17:26:00,70.3,53.3,30.07,South,173,2.0,6.0,55,0.00,,,0.00,339,HR-IXPWINDi_r2_v1.2.,2013-04-27 00:26:00,
2013-04-26 17:31:00,71.0,53.0,30.07,SSE,159,0.0,6.0,53,0.00,,,0.00,322,HR-IXPWINDi_r2_v1.2.,2013-04-27 00:31:00,
2013-04-26 17:36:00,70.3,52.3,30.07,South,173,1.0,6.0,53,0.00,,,0.00,302,HR-IXPWINDi_r2_v1.2.,2013-04-27 00:36:00,
2013-04-26 17:42:00,70.6,53.6,30.07,SSE,167,3.0,6.0,55,0.00,,,0.00,285,HR-IXPWINDi_r2_v1.2.,2013-04-27 00:42:00,
2013-04-26 17:47:00,70.1,53.6,30.07,SE,145,4.0,6.0,56,0.00,,,0.00,267,HR-IXPWINDi_r2_v1.2.,2013-04-27 00:47:00,
2013-04-26 17:52:00,70.0,54.0,30.07,SSE,165,1.0,6.0,57,0.00,,,0.00,250,HR-IXPWINDi_r2_v1.2.,2013-04-27 00:52:00,
2013-04-26 17:57:00,68.8,52.9,30.07,South,186,1.0,5.0,57,0.00,,,0.00,83,HR-IXPWINDi_r2_v1.2.,2013-04-27 00:57:00,
2013-04-26 18:02:00,67.0,52.6,30.07,South,189,0.0,5.0,60,0.00,,,0.00,49,HR-IXPWINDi_r2_v1.2.,2013-04-27 01:02:00,
2013-04-26 18:07:00,65.9,52.9,30.07,SSW,198,2.0,5.0,63,0.00,,,0.00,44,HR-IXPWINDi_r2_v1.2.,2013-04-27 01:07:00,
2013-04-26 18:12:00,65.3,52.8,30.07,WSW,250,0.0,4.0,64,0.00,,,0.00,40,HR-IXPWINDi_r2_v1.2.,2013-04-27 01:12:00,
2013-04-26 18:18:00,64.8,53.1,30.07,South,187,1.0,4.0,66,0.00,,,0.00,37,HR-IXPWINDi_r2_v1.2.,2013-04-27 01:18:00,
2013-04-26 18:23:00,64.4,52.7,30.07,South,184,2.0,4.0,66,0.00,,,0.00,35,HR-IXPWINDi_r2_v1.2.,2013-04-27 01:23:00,
2013-04-26 18:28:00,64.2,53.0,30.07,SSE,167,4.0,6.0,67,0.00,,,0.00,33,HR-IXPWINDi_r2_v1.2.,2013-04-27 01:28:00,
2013-04-26 18:33:00,64.0,52.8,30.07,South,185,0.0,6.0,67,0.00,,,0.00,32,HR-IXPWINDi_r2_v1.2.,2013-04-27 01:33:00,
2013-04-26 18:38:00,63.6,52.8,30.07,SSE,167,2.0,5.0,68,0.00,,,0.00,30,HR-IXPWINDi_r2_v1.2.,2013-04-27 01:38:00,
2013-04-26 18:43:00,63.2,52.8,30.07,South,186,1.0,5.0,69,0.00,,,0.00,28,HR-IXPWINDi_r2_v1.2.,2013-04-27 01:43:00,
2013-04-26 18:49:00,62.8,53.2,30.08,South,181,3.0,5.0,71,0.00,,,0.00,26,HR-IXPWINDi_r2_v1.2.,2013-04-27 01:49:00,
2013-04-26 18:54:00,62.5,52.9,30.08,SSE,158,1.0,5.0,71,0.00,,,0.00,23,HR-IXPWINDi_r2_v1.2.,2013-04-27 01:54:00,
2013-04-26 18:59:00,62.3,53.1,30.08,South,184,3.0,5.0,72,0.00,,,0.00,21,HR-IXPWINDi_r2_v1.2.,2013-04-27 01:59:00,
2013-04-26 19:04:00,62.0,52.8,30.08,South,175,1.0,4.0,72,0.00,,,0.00,19,HR-IXPWINDi_r2_v1.2.,2013-04-27 02:04:00,
2013-04-26 19:10:00,61.7,52.5,30.08,SSW,196,0.0,4.0,72,0.00,,,0.00,18,HR-IXPWINDi_r2_v1.2.,2013-04-27 02:10:00,
2013-04-26 19:15:00,61.4,52.6,30.08,South,182,1.0,4.0,73,0.00,,,0.00,14,HR-IXPWINDi_r2_v1.2.,2013-04-27 02:15:00,
2013-04-26 19:20:00,61.1,52.7,30.08,SW,230,2.0,4.0,74,0.00,,,0.00,12,HR-IXPWINDi_r2_v1.2.,2013-04-27 02:20:00,
2013-04-26 19:25:00,60.9,52.9,30.08,SW,232,0.0,4.0,75,0.00,,,0.00,9,HR-IXPWINDi_r2_v1.2.,2013-04-27 02:25:00,
2013-04-26 19:30:00,60.7,52.7,30.08,SW,232,0.0,3.0,75,0.00,,,0.00,7,HR-IXPWINDi_r2_v1.2.,2013-04-27 02:30:00,
2013-04-26 19:36:00,60.2,52.2,30.08,SW,232,0.0,0.0,75,0.00,,,0.00,0,HR-IXPWINDi_r2_v1.2.,2013-04-27 02:36:00,
2013-04-26 19:41:00,60.1,52.4,30.08,South,170,2.0,3.0,76,0.00,,,0.00,0,HR-IXPWINDi_r2_v1.2.,2013-04-27 02:41:00,
2013-04-26 19:46:00,59.8,52.2,30.08,South,170,0.0,3.0,76,0.00,,,0.00,0,HR-IXPWINDi_r2_v1.2.,2013-04-27 02:46:00,
2013-04-26 19:51:00,59.5,52.2,30.08,South,170,0.0,3.0,77,0.00,,,0.00,0,HR-IXPWINDi_r2_v1.2.,2013-04-27 02:51:00,
2013-04-26 19:56:00,59.3,52.4,30.09,South,170,0.0,1.0,78,0.00,,,0.00,0,HR-IXPWINDi_r2_v1.2.,2013-04-27 02:56:00,
2013-04-26 20:01:00,59.0,52.1,30.09,South,170,0.0,1.0,78,0.00,,,0.00,0,HR-IXPWINDi_r2_v1.2.,2013-04-27 03:01:00,
2013-04-26 20:06:00,58.4,51.5,30.08,South,170,0.0,0.0,78,0.00,,,0.00,0,HR-IXPWINDi_r2_v1.2.,2013-04-27 03:06:00,
2013-04-26 20:11:00,58.0,51.8,30.08,South,170,0.0,0.0,80,0.00,,,0.00,0,HR-IXPWINDi_r2_v1.2.,2013-04-27 03:11:00,
2013-04-26 20:17:00,57.5,51.7,30.09,South,170,0.0,0.0,81,0.00,,,0.00,0,HR-IXPWINDi_r2_v1.2.,2013-04-27 03:17:00,
2013-04-26 20:22:00,57.3,51.5,30.09,South,170,0.0,0.0,81,0.00,,,0.00,0,HR-IXPWINDi_r2_v1.2.,2013-04-27 03:22:00,
2013-04-26 20:27:00,56.7,51.2,30.09,South,170,0.0,0.0,82,0.00,,,0.00,0,HR-IXPWINDi_r2_v1.2.,2013-04-27 03:27:00,
2013-04-26 20:32:00,56.3,51.1,30.09,South,170,0.0,0.0,83,0.00,,,0.00,0,HR-IXPWINDi_r2_v1.2.,2013-04-27 03:32:00,
2013-04-26 20:38:00,56.1,51.3,30.09,South,170,0.0,0.0,84,0.00,,,0.00,0,HR-IXPWINDi_r2_v1.2.,2013-04-27 03:38:00,
2013-04-26 20:43:00,55.9,51.1,30.09,South,170,0.0,0.0,84,0.00,,,0.00,0,HR-IXPWINDi_r2_v1.2.,2013-04-27 03:43:00,
2013-04-26 20:48:00,55.5,50.7,30.09,South,170,0.0,0.0,84,0.00,,,0.00,0,HR-IXPWINDi_r2_v1.2.,2013-04-27 03:48:00,
2013-04-26 20:53:00,55.4,50.6,30.09,South,170,0.0,0.0,84,0.00,,,0.00,0,HR-IXPWINDi_r2_v1.2.,2013-04-27 03:53:00,
2013-04-26 20:58:00,55.0,50.5,30.10,South,170,0.0,0.0,85,0.00,,,0.00,0,HR-IXPWINDi_r2_v1.2.,2013-04-27 03:58:00,
2013-04-26 21:01:00,54.8,50.3,30.10,South,170,0.0,0.0,85,0.00,,,0.00,0,HR-IXPWINDi_r2_v1.2.,2013-04-27 04:01:00,
2013-04-26 21:06:00,54.5,50.3,30.10,South,170,0.0,0.0,86,0.00,,,0.00,0,HR-IXPWINDi_r2_v1.2.,2013-04-27 04:06:00,
2013-04-26 21:11:00,54.3,50.1,30.10,South,170,0.0,0.0,86,0.00,,,0.00,0,HR-IXPWINDi_r2_v1.2.,2013-04-27 04:11:00,
2013-04-26 21:16:00,54.3,50.1,30.10,South,170,0.0,0.0,86,0.00,,,0.00,0,HR-IXPWINDi_r2_v1.2.,2013-04-27 04:16:00,
2013-04-26 21:21:00,54.1,49.9,30.11,South,170,0.0,0.0,86,0.00,,,0.00,0,HR-IXPWINDi_r2_v1.2.,2013-04-27 04:21:00,
2013-04-26 21:27:00,53.9,49.7,30.11,South,170,0.0,0.0,86,0.00,,,0.00,0,HR-IXPWINDi_r2_v1.2.,2013-04-27 04:27:00,
2013-04-26 21:32:00,53.7,49.9,30.10,South,170,0.0,0.0,87,0.00,,,0.00,0,HR-IXPWINDi_r2_v1.2.,2013-04-27 04:32:00,
2013-04-26 21:37:00,53.5,49.4,30.11,South,170,0.0,0.0,86,0.00,,,0.00,0,HR-IXPWINDi_r2_v1.2.,2013-04-27 04:37:00,
2013-04-26 21:43:00,53.1,49.3,30.11,South,170,0.0,0.0,87,0.00,,,0.00,0,HR-IXPWINDi_r2_v1.2.,2013-04-27 04:43:00,
2013-04-26 21:48:00,53.2,49.4,30.11,South,170,0.0,0.0,87,0.00,,,0.00,0,HR-IXPWINDi_r2_v1.2.,2013-04-27 04:48:00,
2013-04-26 21:53:00,53.1,49.3,30.11,South,170,0.0,0.0,87,0.00,,,0.00,0,HR-IXPWINDi_r2_v1.2.,2013-04-27 04:53:00,
2013-04-26 21:58:00,52.9,49.4,30.11,South,170,0.0,0.0,88,0.00,,,0.00,0,HR-IXPWINDi_r2_v1.2.,2013-04-27 04:58:00,
2013-04-26 22:04:00,52.5,49.0,30.11,South,170,0.0,0.0,88,0.00,,,0.00,0,HR-IXPWINDi_r2_v1.2.,2013-04-27 05:04:00,
2013-04-26 22:09:00,52.4,49.2,30.11,South,170,0.0,0.0,89,0.00,,,0.00,0,HR-IXPWINDi_r2_v1.2.,2013-04-27 05:09:00,
2013-04-26 22:14:00,52.3,48.8,30.12,South,170,0.0,0.0,88,0.00,,,0.00,0,HR-IXPWINDi_r2_v1.2.,2013-04-27 05:14:00,
2013-04-26 22:19:00,52.3,49.1,30.11,South,170,0.0,0.0,89,0.00,,,0.00,0,HR-IXPWINDi_r2_v1.2.,2013-04-27 05:19:00,
2013-04-26 22:25:00,52.3,48.8,30.11,South,170,0.0,0.0,88,0.00,,,0.00,0,HR-IXPWINDi_r2_v1.2.,2013-04-27 05:25:00,
2013-04-26 22:30:00,52.4,48.9,30.11,South,170,0.0,0.0,88,0.00,,,0.00,0,HR-IXPWINDi_r2_v1.2.,2013-04-27 05:30:00,
2013-04-26 22:35:00,52.2,48.7,30.11,South,170,0.0,0.0,88,0.00,,,0.00,0,HR-IXPWINDi_r2_v1.2.,2013-04-27 05:35:00,
2013-04-26 22:40:00,52.1,48.6,30.11,South,170,0.0,0.0,88,0.00,,,0.00,0,HR-IXPWINDi_r2_v1.2.,2013-04-27 05:40:00,
2013-04-26 22:45:00,51.9,48.4,30.11,South,170,0.0,0.0,88,0.00,,,0.00,0,HR-IXPWINDi_r2_v1.2.,2013-04-27 05:45:00,
2013-04-26 22:50:00,51.6,48.1,30.11,South,170,0.0,0.0,88,0.00,,,0.00,0,HR-IXPWINDi_r2_v1.2.,2013-04-27 05:50:00,
2013-04-26 22:56:00,51.3,48.1,30.11,South,170,0.0,0.0,89,0.00,,,0.00,0,HR-IXPWINDi_r2_v1.2.,2013-04-27 05:56:00,
2013-04-26 23:01:00,51.3,48.1,30.11,South,170,0.0,0.0,89,0.00,,,0.00,0,HR-IXPWINDi_r2_v1.2.,2013-04-27 06:01:00,
2013-04-26 23:06:00,51.3,48.4,30.11,South,170,0.0,0.0,90,0.00,,,0.00,0,HR-IXPWINDi_r2_v1.2.,2013-04-27 06:06:00,
2013-04-26 23:11:00,51.0,47.8,30.11,South,170,0.0,0.0,89,0.00,,,0.00,0,HR-IXPWINDi_r2_v1.2.,2013-04-27 06:11:00,
2013-04-26 23:16:00,50.9,48.0,30.11,South,170,0.0,0.0,90,0.00,,,0.00,0,HR-IXPWINDi_r2_v1.2.,2013-04-27 06:16:00,
2013-04-26 23:22:00,50.9,48.0,30.11,South,170,0.0,0.0,90,0.00,,,0.00,0,HR-IXPWINDi_r2_v1.2.,2013-04-27 06:22:00,
2013-04-26 23:27:00,50.7,47.8,30.11,South,170,0.0,0.0,90,0.00,,,0.00,0,HR-IXPWINDi_r2_v1.2.,2013-04-27 06:27:00,
2013-04-26 23:32:00,50.5,47.6,30.11,South,170,0.0,0.0,90,0.00,,,0.00,0,HR-IXPWINDi_r2_v1.2.,2013-04-27 06:32:00,
2013-04-26 23:37:00,50.4,47.8,30.11,South,170,0.0,0.0,91,0.00,,,0.00,0,HR-IXPWINDi_r2_v1.2.,2013-04-27 06:37:00,
2013-04-26 23:42:00,50.4,47.8,30.11,South,170,0.0,0.0,91,0.00,,,0.00,0,HR-IXPWINDi_r2_v1.2.,2013-04-27 06:42:00,
2013-04-26 23:48:00,50.3,47.7,30.11,South,170,0.0,0.0,91,0.00,,,0.00,0,HR-IXPWINDi_r2_v1.2.,2013-04-27 06:48:00,
2013-04-26 23:53:00,50.4,47.8,30.11,South,170,0.0,0.0,91,0.00,,,0.00,0,HR-IXPWINDi_r2_v1.2.,2013-04-27 06:53:00,
2013-04-26 23:58:00,50.1,47.5,30.11,South,170,0.0,0.0,91,0.00,,,0.00,0,HR-IXPWINDi_r2_v1.2.,2013-04-27 06:58:00,